createdAt,value
2022-08-28T00:02:27.965Z,68
2022-08-28T00:04:29.128Z,68
2022-08-28T00:08:31.462Z,68
2022-08-28T00:12:34.735Z,68
2022-08-28T00:14:35.938Z,68
2022-08-28T00:16:37.829Z,68
2022-08-28T00:18:38.921Z,68
2022-08-28T00:20:40.040Z,68
2022-08-28T00:22:40.893Z,68
2022-08-28T00:24:42.502Z,68
2022-08-28T00:26:44.223Z,68
2022-08-28T00:28:45.089Z,68
2022-08-28T00:34:49.110Z,68
2022-08-28T00:36:50.306Z,68
2022-08-28T00:40:52.774Z,68
2022-08-28T00:42:54.847Z,68
2022-08-28T00:44:56.368Z,68
2022-08-28T00:46:58.189Z,68
2022-08-28T00:48:59.614Z,68
2022-08-28T00:51:00.923Z,68
2022-08-28T00:53:01.930Z,68
2022-08-28T00:55:03.199Z,68
2022-08-28T00:57:05.042Z,68
2022-08-28T01:01:07.026Z,68
2022-08-28T01:03:08.129Z,68
2022-08-28T01:05:18.894Z,68
2022-08-28T01:07:10.943Z,68
2022-08-28T01:09:12.206Z,68
2022-08-28T01:11:13.118Z,68
2022-08-28T01:13:14.907Z,68
2022-08-28T01:17:17.870Z,68
2022-08-28T01:19:18.915Z,68
2022-08-28T01:21:20.734Z,68
2022-08-28T01:25:23.141Z,68
2022-08-28T01:27:24.161Z,68
2022-08-28T01:29:25.716Z,68
2022-08-28T01:31:26.643Z,68
2022-08-28T01:33:28.132Z,68
2022-08-28T01:37:30.974Z,68
2022-08-28T01:40:15.925Z,68
2022-08-28T01:42:17.089Z,68
2022-08-28T01:46:29.383Z,68
2022-08-28T01:48:21.521Z,68
2022-08-28T01:50:22.524Z,68
2022-08-28T01:52:26.434Z,68
2022-08-28T01:54:26.235Z,68
2022-08-28T01:56:27.772Z,68
2022-08-28T01:58:28.674Z,68
2022-08-28T02:00:30.149Z,68
2022-08-28T02:02:31.713Z,68
2022-08-28T02:04:33.071Z,68
2022-08-28T02:06:34.205Z,68
2022-08-28T02:10:37.018Z,68
2022-08-28T02:12:38.853Z,68
2022-08-28T02:14:40.008Z,68
2022-08-28T02:16:49.267Z,68
2022-08-28T02:20:43.365Z,68
2022-08-28T02:22:45.119Z,69
2022-08-28T02:24:46.285Z,69
2022-08-28T02:26:48.159Z,69
2022-08-28T02:28:49.164Z,69
2022-08-28T02:30:50.503Z,69
2022-08-28T02:32:51.774Z,69
2022-08-28T02:34:53.279Z,69
2022-08-28T02:38:57.836Z,69
2022-08-28T02:42:59.189Z,69
2022-08-28T02:45:00.375Z,69
2022-08-28T02:49:03.883Z,69
2022-08-28T02:53:06.413Z,69
2022-08-28T02:55:07.953Z,69
2022-08-28T02:57:09.468Z,69
2022-08-28T02:59:10.397Z,69
2022-08-28T03:03:12.270Z,69
2022-08-28T03:05:13.764Z,69
2022-08-28T03:09:16.654Z,69
2022-08-28T03:11:18.229Z,69
2022-08-28T03:13:22.989Z,69
2022-08-28T03:15:21.411Z,69
2022-08-28T03:17:22.466Z,69
2022-08-28T03:21:25.479Z,68
2022-08-28T03:23:27.272Z,68
2022-08-28T03:25:28.973Z,69
2022-08-28T03:27:30.052Z,69
2022-08-28T03:29:31.352Z,68
2022-08-28T03:31:33.161Z,68
2022-08-28T03:33:34.609Z,68
2022-08-28T03:35:35.958Z,68
2022-08-28T03:37:37.428Z,69
2022-08-28T03:39:38.755Z,69
2022-08-28T03:41:39.787Z,69
2022-08-28T03:43:41.306Z,69
2022-08-28T03:45:42.874Z,68
2022-08-28T03:47:43.766Z,68
2022-08-28T03:49:45.055Z,68
2022-08-28T03:51:46.696Z,68
2022-08-28T03:53:48.510Z,68
2022-08-28T03:55:50.252Z,69
2022-08-28T03:57:52.075Z,69
2022-08-28T03:59:53.397Z,69
2022-08-28T04:01:55.131Z,69
2022-08-28T04:03:56.163Z,68
2022-08-28T04:05:57.075Z,69
2022-08-28T04:10:00.356Z,69
2022-08-28T04:14:02.923Z,69
2022-08-28T04:16:05.062Z,69
2022-08-28T04:18:06.270Z,68
2022-08-28T04:20:07.602Z,69
2022-08-28T04:24:10.660Z,68
2022-08-28T04:26:12.158Z,69
2022-08-28T04:28:13.445Z,69
2022-08-28T04:30:15.075Z,68
2022-08-28T04:32:16.960Z,68
2022-08-28T04:34:18.474Z,69
2022-08-28T04:36:20.151Z,68
2022-08-28T04:38:21.388Z,69
2022-08-28T04:40:22.760Z,68
2022-08-28T04:42:24.258Z,69
2022-08-28T04:44:25.513Z,69
2022-08-28T04:46:26.706Z,69
2022-08-28T04:52:31.256Z,68
2022-08-28T04:54:32.287Z,68
2022-08-28T04:56:33.296Z,69
2022-08-28T05:02:38.136Z,68
2022-08-28T05:06:40.435Z,68
2022-08-28T05:08:41.698Z,56
2022-08-28T05:10:43.276Z,56
2022-08-28T05:12:44.907Z,56
2022-08-28T05:18:49.515Z,56
2022-08-28T05:20:50.558Z,56
2022-08-28T05:22:51.969Z,56
2022-08-28T05:24:53.719Z,56
2022-08-28T05:26:55.419Z,56
2022-08-28T05:28:56.339Z,33
2022-08-28T05:30:58.142Z,32
2022-08-28T05:32:59.294Z,33
2022-08-28T05:35:00.755Z,33
2022-08-28T05:37:02.274Z,33
2022-08-28T05:39:03.548Z,33
2022-08-28T05:41:05.196Z,19
2022-08-28T05:45:07.193Z,19
2022-08-28T05:47:08.709Z,19
2022-08-28T05:49:10.350Z,19
2022-08-28T05:51:11.524Z,19
2022-08-28T05:55:14.736Z,19
2022-08-28T05:59:17.204Z,19
2022-08-28T06:01:18.226Z,19
2022-08-28T06:03:19.257Z,19
2022-08-28T06:05:20.887Z,19
2022-08-28T06:07:22.198Z,19
2022-08-28T06:09:28.330Z,19
2022-08-28T06:11:25.885Z,19
2022-08-28T06:13:26.797Z,14
2022-08-28T06:15:28.638Z,14
2022-08-28T06:17:30.321Z,14
2022-08-28T06:19:31.534Z,14
2022-08-28T06:21:32.545Z,14
2022-08-28T06:23:33.630Z,14
2022-08-28T06:25:34.640Z,14
2022-08-28T06:27:35.806Z,14
2022-08-28T06:29:37.112Z,14
2022-08-28T06:33:40.091Z,4
2022-08-28T06:35:40.923Z,4
2022-08-28T06:37:42.254Z,360
2022-08-28T06:39:44.077Z,360
2022-08-28T06:41:45.118Z,360
2022-08-28T06:43:46.126Z,360
2022-08-28T06:47:48.416Z,360
2022-08-28T06:49:49.734Z,360
2022-08-28T06:51:51.224Z,360
2022-08-28T06:53:52.841Z,360
2022-08-28T06:55:54.569Z,30
2022-08-28T06:57:56.281Z,30
2022-08-28T06:59:57.561Z,30
2022-08-28T07:01:58.868Z,4
2022-08-28T07:04:00.084Z,4
2022-08-28T07:06:01.114Z,4
2022-08-28T07:10:04.580Z,12
2022-08-28T07:12:06.318Z,57
2022-08-28T07:16:09.246Z,105
2022-08-28T07:18:10.469Z,119
2022-08-28T07:20:11.787Z,119
2022-08-28T07:22:13.401Z,30
2022-08-28T07:24:15.133Z,360
2022-08-28T07:26:16.764Z,76
2022-08-28T07:30:18.698Z,139
2022-08-28T07:32:20.483Z,134
2022-08-28T07:34:22.154Z,134
2022-08-28T07:36:28.758Z,100
2022-08-28T07:40:25.469Z,81
2022-08-28T07:42:26.626Z,102
2022-08-28T07:44:28.402Z,101
2022-08-28T07:46:29.270Z,101
2022-08-28T07:50:32.810Z,82
2022-08-28T07:52:34.087Z,114
2022-08-28T07:54:35.128Z,107
2022-08-28T07:56:36.034Z,55
2022-08-28T07:58:37.250Z,102
2022-08-28T08:00:38.772Z,89
2022-08-28T08:02:40.339Z,85
2022-08-28T08:04:41.293Z,85
2022-08-28T08:08:44.399Z,23
2022-08-28T08:10:45.575Z,23
2022-08-28T08:12:46.637Z,23
2022-08-28T08:14:47.499Z,84
2022-08-28T08:18:50.800Z,96
2022-08-28T08:20:52.121Z,360
2022-08-28T08:22:53.151Z,29
2022-08-28T08:24:54.899Z,17
2022-08-28T08:25:38.651Z,16
2022-08-28T08:27:43.006Z,18
2022-08-28T08:35:45.640Z,350
2022-08-28T08:37:46.603Z,151
2022-08-28T08:39:47.914Z,134
2022-08-28T08:41:49.028Z,126
2022-08-28T08:43:49.967Z,118
2022-08-28T08:45:51.715Z,104
2022-08-28T08:47:52.599Z,100
2022-08-28T08:49:53.854Z,208
2022-08-28T08:55:57.511Z,3
2022-08-28T08:57:58.419Z,15
2022-08-28T08:59:59.267Z,15
2022-08-28T09:02:00.110Z,60
2022-08-28T09:06:02.280Z,60
2022-08-28T09:08:03.523Z,360
2022-08-28T09:12:06.110Z,30
2022-08-28T09:14:07.563Z,72
2022-08-28T09:16:09.015Z,72
2022-08-28T09:18:10.650Z,41
2022-08-28T09:20:11.959Z,41
2022-08-28T09:22:13.471Z,41
2022-08-28T09:24:14.719Z,41
2022-08-28T09:26:16.336Z,290
2022-08-28T09:28:17.802Z,290
2022-08-28T09:30:18.815Z,290
2022-08-28T09:32:19.926Z,290
2022-08-28T09:34:20.811Z,290
2022-08-28T09:36:22.230Z,287
2022-08-28T09:38:23.186Z,106
2022-08-28T09:40:24.652Z,106
2022-08-28T09:42:26.092Z,106
2022-08-28T09:46:27.958Z,215
2022-08-28T09:52:31.805Z,156
2022-08-28T09:54:33.445Z,156
2022-08-28T09:56:34.373Z,156
2022-08-28T09:58:35.232Z,19
2022-08-28T10:00:36.325Z,19
2022-08-28T10:04:38.637Z,19
2022-08-28T10:06:40.046Z,19
2022-08-28T10:08:41.433Z,19
2022-08-28T10:10:42.289Z,19
2022-08-28T10:16:45.769Z,216
2022-08-28T10:18:47.037Z,159
2022-08-28T10:20:48.668Z,131
2022-08-28T10:22:49.845Z,234
2022-08-28T10:24:50.966Z,351
2022-08-28T10:26:52.698Z,341
2022-08-28T10:28:54.033Z,348
2022-08-28T10:30:55.588Z,341
2022-08-28T10:32:56.314Z,341
2022-08-28T10:34:57.970Z,126
2022-08-28T10:36:59.710Z,123
2022-08-28T10:39:00.970Z,22
2022-08-28T10:43:02.908Z,23
2022-08-28T10:47:06.492Z,24
2022-08-28T10:49:07.837Z,49
2022-08-28T10:53:10.490Z,205
2022-08-28T10:57:13.057Z,205
2022-08-28T10:59:14.684Z,205
2022-08-28T11:01:16.165Z,205
2022-08-28T11:03:33.378Z,205
2022-08-28T11:07:19.684Z,205
2022-08-28T11:09:20.928Z,116
2022-08-28T11:11:22.150Z,229
2022-08-28T11:15:24.466Z,343
2022-08-28T11:17:26.125Z,339
2022-08-28T11:19:27.707Z,337
2022-08-28T11:21:28.978Z,316
2022-08-28T11:25:32.341Z,316
2022-08-28T11:31:34.957Z,323
2022-08-28T11:35:37.950Z,28
2022-08-28T11:37:39.510Z,360
2022-08-28T11:39:40.830Z,83
2022-08-28T11:41:42.222Z,83
2022-08-28T11:43:43.186Z,79
2022-08-28T11:45:45.867Z,79
2022-08-28T11:47:45.639Z,79
2022-08-28T11:49:46.663Z,79
2022-08-28T11:51:48.159Z,79
2022-08-28T11:53:49.712Z,116
2022-08-28T11:55:51.041Z,139
2022-08-28T11:57:52.410Z,201
2022-08-28T11:59:53.732Z,192
2022-08-28T12:01:54.636Z,189
2022-08-28T12:03:55.682Z,189
2022-08-28T12:07:58.950Z,186
2022-08-28T12:10:04.352Z,140
2022-08-28T12:12:00.993Z,140
2022-08-28T12:14:01.911Z,140
2022-08-28T12:18:04.264Z,166
2022-08-28T12:20:05.687Z,189
2022-08-28T12:24:08.994Z,130
2022-08-28T12:28:12.939Z,144
2022-08-28T12:30:11.087Z,125
2022-08-28T12:34:13.272Z,199
2022-08-28T12:36:14.694Z,199
2022-08-28T12:38:15.588Z,120
2022-08-28T12:40:16.821Z,137
2022-08-28T12:42:17.729Z,171
2022-08-28T12:44:19.333Z,171
2022-08-28T12:46:20.212Z,166
2022-08-28T12:48:21.198Z,130
2022-08-28T12:50:22.230Z,158
2022-08-28T12:52:23.050Z,190
2022-08-28T12:54:24.120Z,192
2022-08-28T12:56:25.737Z,194
2022-08-28T12:58:27.230Z,192
2022-08-28T13:00:28.888Z,187
2022-08-28T13:02:29.903Z,187
2022-08-28T13:04:30.759Z,188
2022-08-28T13:06:32.053Z,188
2022-08-28T13:08:32.938Z,188
2022-08-28T13:10:34.569Z,188
2022-08-28T13:12:37.919Z,188
2022-08-28T13:14:37.361Z,199
2022-08-28T13:16:38.662Z,199
2022-08-28T13:18:39.823Z,199
2022-08-28T13:20:40.998Z,122
2022-08-28T13:26:45.000Z,129
2022-08-28T13:28:45.873Z,129
2022-08-28T13:32:48.405Z,40
2022-08-28T13:36:51.323Z,25
2022-08-28T13:38:52.319Z,24
2022-08-28T13:42:54.632Z,25
2022-08-28T13:44:55.978Z,25
2022-08-28T13:46:57.028Z,63
2022-08-28T13:48:58.047Z,104
2022-08-28T13:50:58.898Z,104
2022-08-28T13:53:00.389Z,104
2022-08-28T13:55:01.570Z,105
2022-08-28T13:57:03.145Z,198
2022-08-28T13:59:04.396Z,198
2022-08-28T14:01:05.397Z,198
2022-08-28T14:05:07.568Z,198
2022-08-28T14:07:09.009Z,105
2022-08-28T14:11:12.794Z,119
2022-08-28T14:15:14.059Z,119
2022-08-28T14:17:15.330Z,120
2022-08-28T14:19:16.109Z,88
2022-08-28T14:21:16.981Z,108
2022-08-28T14:25:28.733Z,118
2022-08-28T14:27:20.503Z,132
2022-08-28T14:29:21.686Z,133
2022-08-28T14:31:24.732Z,99
2022-08-28T14:37:27.504Z,99
2022-08-28T14:39:29.243Z,53
2022-08-28T14:41:30.601Z,53
2022-08-28T14:43:32.172Z,53
2022-08-28T14:45:33.512Z,58
2022-08-28T14:47:35.112Z,76
2022-08-28T14:49:36.660Z,121
2022-08-28T14:51:37.503Z,121
2022-08-28T14:53:38.688Z,121
2022-08-28T14:55:39.672Z,121
2022-08-28T14:57:40.921Z,121
2022-08-28T14:59:42.664Z,121
2022-08-28T15:03:45.430Z,122
2022-08-28T15:07:47.465Z,122
2022-08-28T15:09:49.001Z,122
2022-08-28T15:12:34.072Z,122
2022-08-28T15:14:35.723Z,122
2022-08-28T15:18:38.204Z,122
2022-08-28T15:20:39.491Z,122
2022-08-28T15:22:40.672Z,130
2022-08-28T15:24:42.142Z,130
2022-08-28T15:28:44.339Z,130
2022-08-28T15:30:45.731Z,130
2022-08-28T15:32:47.259Z,133
2022-08-28T15:34:48.655Z,133
2022-08-28T15:36:50.976Z,133
2022-08-28T15:40:52.274Z,134
2022-08-28T15:42:53.860Z,160
2022-08-28T15:44:54.721Z,204
2022-08-28T15:50:57.757Z,200
2022-08-28T15:52:58.847Z,170
2022-08-28T15:55:00.191Z,170
2022-08-28T15:57:01.239Z,123
2022-08-28T16:01:02.993Z,105
2022-08-28T16:03:04.678Z,151
2022-08-28T16:05:05.841Z,85
2022-08-28T16:07:06.785Z,117
2022-08-28T16:11:08.733Z,130
2022-08-28T16:13:10.455Z,106
2022-08-28T16:15:11.581Z,106
2022-08-28T16:17:13.006Z,107
2022-08-28T16:19:14.236Z,106
2022-08-28T16:21:15.543Z,148
2022-08-28T16:23:17.123Z,126
2022-08-28T16:25:18.849Z,118
2022-08-28T16:27:20.537Z,127
2022-08-28T16:29:21.337Z,132
2022-08-28T16:31:22.303Z,121
2022-08-28T16:33:23.507Z,112
2022-08-28T16:35:24.347Z,112
2022-08-28T16:39:27.235Z,94
2022-08-28T16:41:28.114Z,98
2022-08-28T16:43:29.696Z,99
2022-08-28T16:45:31.462Z,100
2022-08-28T16:49:34.376Z,104
2022-08-28T16:53:37.491Z,105
2022-08-28T16:55:38.717Z,105
2022-08-28T16:59:42.230Z,105
2022-08-28T17:01:43.915Z,105
2022-08-28T17:03:44.938Z,105
2022-08-28T17:05:46.688Z,105
2022-08-28T17:07:48.086Z,105
2022-08-28T17:09:49.286Z,105
2022-08-28T17:13:51.322Z,105
2022-08-28T17:15:53.035Z,105
2022-08-28T17:17:54.004Z,105
2022-08-28T17:19:54.837Z,105
2022-08-28T17:21:56.367Z,105
2022-08-28T17:23:57.403Z,105
2022-08-28T17:25:58.509Z,105
2022-08-28T17:27:59.499Z,105
2022-08-28T17:32:01.844Z,105
2022-08-28T17:34:03.025Z,105
2022-08-28T17:36:03.936Z,105
2022-08-28T17:38:04.788Z,105
2022-08-28T17:40:06.416Z,105
2022-08-28T17:42:08.032Z,105
2022-08-28T17:44:09.074Z,105
2022-08-28T17:46:10.835Z,105
2022-08-28T17:50:12.978Z,105
2022-08-28T17:52:14.311Z,105
2022-08-28T17:54:15.341Z,105
2022-08-28T17:56:17.021Z,105
2022-08-28T17:58:18.227Z,105
2022-08-28T18:00:19.905Z,105
2022-08-28T18:02:20.908Z,105
2022-08-28T18:04:24.333Z,105
2022-08-28T18:06:23.246Z,105
2022-08-28T18:08:24.739Z,105
2022-08-28T18:10:26.048Z,105
2022-08-28T18:14:28.298Z,105
2022-08-28T18:16:31.285Z,105
2022-08-28T18:20:31.887Z,105
2022-08-28T18:22:33.231Z,105
2022-08-28T18:24:34.428Z,105
2022-08-28T18:28:36.611Z,105
2022-08-28T18:34:41.031Z,105
2022-08-28T18:36:41.914Z,105
2022-08-28T18:38:43.567Z,105
2022-08-28T18:40:45.225Z,105
2022-08-28T18:42:46.880Z,105
2022-08-28T18:44:47.856Z,105
2022-08-28T18:46:48.814Z,105
2022-08-28T18:48:49.644Z,105
2022-08-28T18:50:50.913Z,105
2022-08-28T18:52:51.878Z,105
2022-08-28T18:54:53.622Z,105
2022-08-28T18:56:58.470Z,105
2022-08-28T19:02:59.563Z,105
2022-08-28T19:05:01.072Z,105
2022-08-28T19:07:02.242Z,105
2022-08-28T19:09:03.686Z,105
2022-08-28T19:13:05.482Z,105
2022-08-28T19:15:06.394Z,105
2022-08-28T19:17:07.918Z,105
2022-08-28T19:19:09.050Z,105
2022-08-28T19:23:15.499Z,105
2022-08-28T19:25:13.300Z,105
2022-08-28T19:27:13.760Z,105
2022-08-28T19:29:14.855Z,105
2022-08-28T19:31:16.059Z,105
2022-08-28T19:33:17.422Z,105
2022-08-28T19:35:18.559Z,105
2022-08-28T19:37:20.206Z,105
2022-08-28T19:45:26.182Z,105
2022-08-28T19:47:27.120Z,105
2022-08-28T19:49:28.466Z,105
2022-08-28T19:51:30.143Z,105
2022-08-28T19:55:33.203Z,105
2022-08-28T19:57:34.455Z,106
2022-08-28T19:59:36.272Z,106
2022-08-28T20:03:39.734Z,106
2022-08-28T20:05:41.329Z,106
2022-08-28T20:07:42.854Z,106
2022-08-28T20:09:44.218Z,106
2022-08-28T20:11:45.244Z,106
2022-08-28T20:13:46.938Z,106
2022-08-28T20:15:48.788Z,106
2022-08-28T20:17:50.379Z,106
2022-08-28T20:21:52.078Z,106
2022-08-28T20:23:53.297Z,106
2022-08-28T20:25:54.475Z,106
2022-08-28T20:27:59.627Z,106
2022-08-28T20:29:57.459Z,106
2022-08-28T20:31:58.434Z,106
2022-08-28T20:34:00.193Z,106
2022-08-28T20:36:01.948Z,106
2022-08-28T20:38:03.274Z,106
2022-08-28T20:40:07.873Z,106
2022-08-28T20:44:07.171Z,106
2022-08-28T20:46:08.460Z,106
2022-08-28T20:48:09.583Z,106
2022-08-28T20:50:11.028Z,106
2022-08-28T20:54:13.645Z,106
2022-08-28T20:56:15.022Z,106
2022-08-28T20:58:16.467Z,106
2022-08-28T21:00:17.714Z,106
2022-08-28T21:02:18.716Z,106
2022-08-28T21:04:19.575Z,106
2022-08-28T21:06:20.575Z,106
2022-08-28T21:08:21.795Z,106
2022-08-28T21:10:23.452Z,106
2022-08-28T21:12:24.767Z,106
2022-08-28T21:14:25.932Z,106
2022-08-28T21:16:27.877Z,106
2022-08-28T21:18:29.215Z,106
2022-08-28T21:20:30.879Z,106
2022-08-28T21:22:32.902Z,106
2022-08-28T21:26:34.532Z,106
2022-08-28T21:28:35.884Z,106
2022-08-28T21:32:38.458Z,106
2022-08-28T21:36:41.733Z,106
2022-08-28T21:38:43.083Z,106
2022-08-28T21:40:44.271Z,106
2022-08-28T21:42:45.803Z,106
2022-08-28T21:44:48.400Z,106
2022-08-28T21:46:48.106Z,106
2022-08-28T21:48:49.555Z,106
2022-08-28T21:50:51.159Z,106
2022-08-28T21:52:52.079Z,106
2022-08-28T21:54:53.098Z,106
2022-08-28T21:55:36.859Z,106
2022-08-28T21:57:38.256Z,106
2022-08-28T21:59:39.795Z,106
2022-08-28T22:01:41.207Z,106
2022-08-28T22:03:41.996Z,106
2022-08-28T22:05:43.222Z,106
2022-08-28T22:09:46.563Z,106
2022-08-28T22:13:48.849Z,106
2022-08-28T22:15:50.437Z,106
2022-08-28T22:19:53.067Z,106
2022-08-28T22:23:56.053Z,106
2022-08-28T22:25:57.682Z,106
2022-08-28T22:30:00.458Z,106
2022-08-28T22:32:01.689Z,106
2022-08-28T22:34:02.842Z,58
2022-08-28T22:36:03.871Z,56
2022-08-28T22:40:09.715Z,45
2022-08-28T22:42:08.356Z,44
2022-08-28T22:44:09.530Z,45
2022-08-28T22:46:10.637Z,45
2022-08-28T22:48:11.979Z,45
2022-08-28T22:50:13.796Z,45
2022-08-28T22:54:16.981Z,45
2022-08-28T22:56:18.183Z,44
2022-08-28T22:58:19.822Z,44
2022-08-28T23:02:22.624Z,44
2022-08-28T23:04:23.962Z,44
2022-08-28T23:08:27.177Z,44
2022-08-28T23:10:42.337Z,44
2022-08-28T23:12:28.821Z,44
2022-08-28T23:14:30.439Z,44
2022-08-28T23:16:31.872Z,44
2022-08-28T23:18:46.568Z,44
2022-08-28T23:22:35.462Z,44
2022-08-28T23:24:36.402Z,44
2022-08-28T23:26:37.603Z,44
2022-08-28T23:28:38.604Z,44
2022-08-28T23:30:39.567Z,44
2022-08-28T23:34:42.207Z,44
2022-08-28T23:36:43.558Z,44
2022-08-28T23:38:44.860Z,44
2022-08-28T23:40:46.405Z,44
2022-08-28T23:42:47.632Z,44
2022-08-28T23:44:48.748Z,44
2022-08-28T23:46:50.257Z,44
2022-08-28T23:50:53.236Z,44
2022-08-28T23:52:54.439Z,44
2022-08-28T23:54:56.232Z,44
2022-08-28T23:56:57.415Z,44
